АЭРОДРОМУУД

ICAO:
ZMUB
Нэр:
УЛААНБААТАР / БУЯНТ-УХАА
Ахц:
475033N 1064603E
190041 ZMUBYNYX
(A0019/21 NOTAMR A0005/21
Q) ZMUB/QLPAS/IV/BO /A /000/999/4750N10646E005
A) ZMUB B) 2101190041 C) 2102020100
E) PAPI FOR RWY 14 U/S)
- 3 days ago -

121315 ZMUBYNYX
(A0011/21 NOTAMN
Q) ZMUB/QPDAW/I /NBO/A /000/999/4750N10646E005
A) ZMUB B) 2101130000 C) PERM
E) SID NDB RWY 32 VIZOT 1G, SER 1A, TANAN 1A, ANIKU 2A WITHDRAWN.)
- 1 week ago -

121310 ZMUBYNYX
(A0010/21 NOTAMN
Q) ZMUB/QPDAW/I /NBO/A /000/999/4750N10646E005
A) ZMUB B) 2101130000 C) PERM
E) SID VOR/DME RWY 32 VIZOT 1E, SER 1E, TANAN 1E, ANIKU 1F WITHDRAWN. )
- 1 week ago -

010350 ZMUBYNYX
(C0001/21 NOTAMR C0432/20
Q) ZMUB/QKKKK/K /K /K /000/999/4752N10350E999
A) ZMUB B) 2101010350 C) 2102010700 EST
E) CHECKLIST YEAR=2020 0423 0424 0434 0437 0439 0453 LATEST PUBLICATIONS: AIP AMDT: 05/20 PUBLICATION DATE 19 NOV 2020 AIRAC AIP AMDT: 08/20 WEF 05 NOV 2020 AIC (SERIES C): 03/20 PUBLICATION DATE 20 JUL 2020 AIP SUP: 08/20 PUBLICATION DATE 19 NOV 2020 AIRAC AIP SUP: 01/18 WEF 21 JUN 2018 AIP DATA SET: AIPZM-AMDT03-20 WEF 19 NOV 2020 OBST DATA SET: O-AREA1ZM200618 WEF 18 JUN 2020 O-AREA2ZMCK200618 WEF 18 JUN 2020 O-AREA2ZMUB200730 WEF 10 SEP 2020 O-AREA3ZMCK200618 WEF 18 JUN 2020 O-AREA3ZMUB200618 WEF 18 JUN 2020 TERRAIN DATA SET:T-AREA1ZM200618 WEF 18 JUN 2020 T-AREA2ZMCK200618 WEF 18 JUN 2020 T-AREA2ZMUB200618 WEF 18 JUN 2020 T-AREA3ZMCK200618 WEF 18 JUN 2020 T-AREA3ZMUB200618 WEF 18 JUN 2020 AD MAPPING DATA SET: AMDBZMCK200618 WEF 18 JUN 2020 AMDBZMUB200618 WEF 18 JUN 2020 AMDBZMDZ200618 WEF 18 JUN 2020 IFP DATA SET: IFPZM20 WEF 10 SEP 2020 AIP SUP CHECKLIST: AIP SUP: 01/20, 05/20, 06/20, 07/20, 08/20 AIRAC AIP SUP: 01/18 AIC CHECKLIST: AIC (SERIES C): 02/08, 02/20, 03/20)
- 3 weeks ago -

010340 ZMUBYNYX
(A0001/21 NOTAMR A0715/20
Q) ZMUB/QKKKK/K /K /K /000/999/4752N10350E999
A) ZMUB B) 2101010340 C) 2102010700 EST
E) CHECKLIST YEAR=2019 0246 YEAR=2020 0695 0753 0757 0776 0829 LATEST PUBLICATIONS: AIP AMDT: 05/20 PUBLICATION DATE 19 NOV 2020 AIRAC AIP AMDT: 08/20 WEF 05 NOV 2020 AIC (SERIES A): 06/20 PUBLICATION DATE 13 AUG 2020 AIP SUP: 08/20 PUBLICATION DATE 19 NOV 2020 AIRAC AIP SUP: 01/18 WEF 21 JUN 2018 AIP DATA SET: AIPZM-AMDT03-20 WEF 19 NOV 2020 OBST DATA SET: O-AREA1ZM200618 WEF 18 JUN 2020 O-AREA2ZMCK200618 WEF 18 JUN 2020 O-AREA2ZMUB200730 WEF 10 SEP 2020 O-AREA3ZMCK200618 WEF 18 JUN 2020 O-AREA3ZMUB200618 WEF 18 JUN 2020 TERRAIN DATA SET:T-AREA1ZM200618 WEF 18 JUN 2020 T-AREA2ZMCK200618 WEF 18 JUN 2020 T-AREA2ZMUB200618 WEF 18 JUN 2020 T-AREA3ZMCK200618 WEF 18 JUN 2020 T-AREA3ZMUB200618 WEF 18 JUN 2020 AD MAPPING DATA SET: AMDBZMCK200618 WEF 18 JUN 2020 AMDBZMUB200618 WEF 18 JUN 2020 AMDBZMDZ200618 WEF 18 JUN 2020 IFP DATA SET: IFPZM20 WEF 10 SEP 2020 AIP SUP CHECKLIST: AIP SUP: 01/20, 05/20, 06/20, 07/20, 08/20 AIRAC AIP SUP: 01/18 AIC CHECKLIST: AIC (SERIES A): 02/17, 04/17, 03/20, 05/20, 06/20)
- 3 weeks ago -

311121 ZMUBYNYX
(A0829/20 NOTAMR A0611/20
Q) ZMUB/QFAXX/IV/NBO/A /000/999/4750N10646E005
A) ZMUB B) 2012311121 C) 2103311559
E) AD CLSD FOR INTL SKED FLT DUE TO COVID-19 INFECTION PREVENTION.)
- 3 weeks ago -

300206 ZMUBYNYX
(A0695/20 NOTAMN
Q) ZMUB/QFAXX/IV/NBO/A /000/999/4750N10646E005
A) ZMUB B) 2011301600 C) PERM
E) VALIDITY OF AD CERTIFICATE EXTENDED TO 1600 UTC 30 NOV 2021 REF AIP MONGOLIA AD 1.5)
- 2 months ago -

METAR
METAR ZMUB 220700Z VRB01MPS 8000NW NSC M09/M16 Q1009 NOSIG RMK QFE650.1 52 NW MO=
- moments ago -

TAF
TAF ZMUB 220450Z 2206/2215 VRB02MPS 6000 SCT100=
- 2 hours ago -

TAF ZMUB 220430Z 2206/2312 VRB02MPS 6000 SCT100 TXM08/2206Z TNM23/2224Z=
- 2 hours ago -

TAF ZMUB 220150Z 2203/2212 VRB02MPS 6000 SCT100=
- 5 hours ago -

TAF ZMUB 212250Z 2200/2209 VRB02MPS 6000 SCT100 BECMG 2201/2203 4000 FU BECMG 2204/2206 6000=
- 8 hours ago -

TAF ZMUB 211950Z 2121/2206 VRB02MPS 6000 SCT100 BECMG 2200/2202 4000 FU BECMG 2204/2206 6000=
- 11 hours ago -

TAF ZMUB 211630Z 2118/2224 VRB02MPS 6000 SCT100 TNM27/2124Z TXM08/2206Z BECMG 2200/2202 4000 FU BECMG 2204/2206 6000=
- 14 hours ago -

TAF ZMUB 211040Z 2112/2218 VRB02MPS 6000 SCT100 TNM25/2124Z TXM08/2206Z BECMG 2200/2202 4000 FU BECMG 2204/2206 6000=
- 20 hours ago -

TAF ZMUB 210440Z 2106/2212 VRB02MPS 6000 SCT100 TXM10/2106Z TNM25/2124Z=
- 1 day ago -

TAF ZMUB 202240Z 2100/2206 VRB02MPS 6000 SCT100 TXM10/2106Z TNM28/2124Z=
- 1 day ago -